QLK210 YSCB-YMML
Flight info
| Callsign | QLK210 |
|---|---|
| Flight time | 0h 49m |
| Altitude | 32000 |
| Route | DCT CB Q215 TANTA Q29 ML DCT |
| Aircraft | A320/M-SDE3FGHIRWY/LB1 |
Departure
| Time | 2026-04-30 12:30 |
|---|---|
| Airport | Canberra Airport (YSCB) |
Arrival
| Time | 2026-04-30 13:19 |
|---|---|
| Airport | Melbourne Airport (YMML) |
| Time | Latitude | Longitude | Altitude | Speed | Heading |
|---|---|---|---|---|---|
| 2026-04-30 12:13 | -35.30817 | 149.19145 | 1881 ft | 0 kts | 291° |
| 2026-04-30 12:22 | -35.30817 | 149.19144 | 1881 ft | 2 kts | 291° |
| 2026-04-30 12:22 | -35.30823 | 149.19163 | 1881 ft | 2 kts | 291° |
| 2026-04-30 12:23 | -35.30829 | 149.19182 | 1882 ft | 2 kts | 291° |
| 2026-04-30 12:23 | -35.30835 | 149.19200 | 1882 ft | 2 kts | 291° |
| 2026-04-30 12:23 | -35.30842 | 149.19219 | 1883 ft | 2 kts | 270° |
| 2026-04-30 12:23 | -35.30837 | 149.19237 | 1883 ft | 2 kts | 201° |
| 2026-04-30 12:24 | -35.30828 | 149.19240 | 1878 ft | 0 kts | 175° |
| 2026-04-30 12:25 | -35.30836 | 149.19240 | 1884 ft | 3 kts | 178° |
| 2026-04-30 12:26 | -35.30886 | 149.19239 | 1881 ft | 8 kts | 181° |
| 2026-04-30 12:26 | -35.30953 | 149.19239 | 1881 ft | 12 kts | 179° |
| 2026-04-30 12:26 | -35.31048 | 149.19239 | 1879 ft | 15 kts | 180° |
| 2026-04-30 12:26 | -35.31167 | 149.19239 | 1877 ft | 19 kts | 180° |
| 2026-04-30 12:27 | -35.31311 | 149.19239 | 1874 ft | 23 kts | 180° |
| 2026-04-30 12:27 | -35.31421 | 149.19239 | 1872 ft | 24 kts | 180° |
| 2026-04-30 12:27 | -35.31651 | 149.19239 | 1874 ft | 26 kts | 180° |
| 2026-04-30 12:27 | -35.31768 | 149.19239 | 1875 ft | 22 kts | 180° |
| 2026-04-30 12:28 | -35.31904 | 149.19240 | 1876 ft | 12 kts | 179° |
| 2026-04-30 12:28 | -35.31980 | 149.19274 | 1881 ft | 12 kts | 138° |
| 2026-04-30 12:28 | -35.32010 | 149.19371 | 1882 ft | 14 kts | 92° |
| 2026-04-30 12:28 | -35.31942 | 149.19446 | 1878 ft | 17 kts | 0° |
| 2026-04-30 12:29 | -35.31747 | 149.19446 | 1876 ft | 56 kts | 360° |
| 2026-04-30 12:29 | -35.31139 | 149.19444 | 1876 ft | 115 kts | 360° |
| 2026-04-30 12:29 | -35.30188 | 149.19443 | 1878 ft | 157 kts | 0° |
| 2026-04-30 12:29 | -35.29027 | 149.19438 | 2204 ft | 171 kts | 359° |
| 2026-04-30 12:30 | -35.27803 | 149.19410 | 2683 ft | 181 kts | 1° |
| 2026-04-30 12:30 | -35.26509 | 149.19465 | 3252 ft | 191 kts | 3° |
| 2026-04-30 12:30 | -35.25151 | 149.19508 | 3821 ft | 200 kts | 6° |
| 2026-04-30 12:30 | -35.23739 | 149.19705 | 4217 ft | 214 kts | 9° |
| 2026-04-30 12:31 | -35.22178 | 149.19985 | 4538 ft | 239 kts | 10° |
| 2026-04-30 12:31 | -35.20455 | 149.20284 | 5030 ft | 259 kts | 8° |
| 2026-04-30 12:31 | -35.18636 | 149.20569 | 5804 ft | 266 kts | 7° |
| 2026-04-30 12:31 | -35.16780 | 149.20835 | 6689 ft | 270 kts | 6° |
| 2026-04-30 12:32 | -35.14896 | 149.21077 | 7530 ft | 274 kts | 2° |
| 2026-04-30 12:32 | -35.13030 | 149.20626 | 8318 ft | 279 kts | 332° |
| 2026-04-30 12:32 | -35.11634 | 149.18978 | 9100 ft | 286 kts | 299° |
| 2026-04-30 12:32 | -35.11167 | 149.16621 | 9868 ft | 293 kts | 266° |
| 2026-04-30 12:33 | -35.11721 | 149.14188 | 10392 ft | 309 kts | 244° |
| 2026-04-30 12:33 | -35.12865 | 149.11864 | 10689 ft | 329 kts | 235° |
| 2026-04-30 12:33 | -35.14233 | 149.09569 | 11226 ft | 338 kts | 234° |
| 2026-04-30 12:33 | -35.15616 | 149.07227 | 11892 ft | 342 kts | 236° |
| 2026-04-30 12:34 | -35.16939 | 149.04788 | 12597 ft | 346 kts | 238° |
| 2026-04-30 12:34 | -35.17771 | 149.03124 | 13065 ft | 348 kts | 240° |
| 2026-04-30 12:34 | -35.19356 | 148.99697 | 14019 ft | 351 kts | 242° |
| 2026-04-30 12:34 | -35.20627 | 148.97135 | 14671 ft | 355 kts | 233° |
| 2026-04-30 12:35 | -35.22346 | 148.94948 | 15286 ft | 359 kts | 219° |
| 2026-04-30 12:35 | -35.24490 | 148.93356 | 15873 ft | 364 kts | 204° |
| 2026-04-30 12:35 | -35.26930 | 148.92491 | 16454 ft | 368 kts | 189° |
| 2026-04-30 12:35 | -35.29487 | 148.92086 | 17045 ft | 372 kts | 187° |
| 2026-04-30 12:36 | -35.32064 | 148.91679 | 17635 ft | 376 kts | 188° |
| 2026-04-30 12:36 | -35.34667 | 148.91258 | 18226 ft | 379 kts | 188° |
| 2026-04-30 12:36 | -35.37298 | 148.90822 | 18817 ft | 383 kts | 188° |
| 2026-04-30 12:36 | -35.39949 | 148.90378 | 19349 ft | 386 kts | 188° |
| 2026-04-30 12:37 | -35.42623 | 148.89931 | 19889 ft | 390 kts | 188° |
| 2026-04-30 12:37 | -35.45319 | 148.89480 | 20445 ft | 393 kts | 188° |
| 2026-04-30 12:37 | -35.48042 | 148.89028 | 20987 ft | 396 kts | 188° |
| 2026-04-30 12:37 | -35.50783 | 148.88573 | 21536 ft | 399 kts | 188° |
| 2026-04-30 12:38 | -35.53547 | 148.88115 | 22032 ft | 403 kts | 188° |
| 2026-04-30 12:38 | -35.56334 | 148.87651 | 22576 ft | 406 kts | 188° |
| 2026-04-30 12:38 | -35.59144 | 148.87184 | 23093 ft | 409 kts | 188° |
| 2026-04-30 12:38 | -35.61982 | 148.86711 | 23622 ft | 413 kts | 188° |
| 2026-04-30 12:39 | -35.64821 | 148.86134 | 24111 ft | 415 kts | 195° |
| 2026-04-30 12:39 | -35.67555 | 148.84956 | 24532 ft | 416 kts | 207° |
| 2026-04-30 12:39 | -35.70018 | 148.83169 | 24947 ft | 417 kts | 218° |
| 2026-04-30 12:39 | -35.72188 | 148.80803 | 25376 ft | 417 kts | 229° |
| 2026-04-30 12:40 | -35.73967 | 148.77990 | 25787 ft | 417 kts | 237° |
| 2026-04-30 12:40 | -35.75637 | 148.75051 | 26202 ft | 420 kts | 237° |
| 2026-04-30 12:40 | -35.77318 | 148.72093 | 26595 ft | 423 kts | 237° |
| 2026-04-30 12:40 | -35.79011 | 148.69123 | 26987 ft | 425 kts | 237° |
| 2026-04-30 12:41 | -35.80714 | 148.66137 | 27384 ft | 427 kts | 237° |
| 2026-04-30 12:41 | -35.82425 | 148.63134 | 27775 ft | 429 kts | 237° |
| 2026-04-30 12:41 | -35.84145 | 148.60109 | 28153 ft | 432 kts | 237° |
| 2026-04-30 12:41 | -35.85869 | 148.57072 | 28537 ft | 434 kts | 237° |
| 2026-04-30 12:42 | -35.87602 | 148.54014 | 28924 ft | 436 kts | 237° |
| 2026-04-30 12:42 | -35.89339 | 148.50943 | 29304 ft | 438 kts | 237° |
| 2026-04-30 12:42 | -35.91085 | 148.47850 | 29664 ft | 440 kts | 237° |
| 2026-04-30 12:42 | -35.92834 | 148.44741 | 30020 ft | 443 kts | 237° |
| 2026-04-30 12:43 | -35.94594 | 148.41608 | 30369 ft | 445 kts | 237° |
| 2026-04-30 12:43 | -35.96362 | 148.38464 | 30691 ft | 447 kts | 237° |
| 2026-04-30 12:43 | -35.98118 | 148.35340 | 30991 ft | 449 kts | 237° |
| 2026-04-30 12:43 | -35.99924 | 148.32123 | 31310 ft | 451 kts | 238° |
| 2026-04-30 12:44 | -36.01684 | 148.28977 | 31631 ft | 452 kts | 238° |
| 2026-04-30 12:44 | -36.03469 | 148.25788 | 32074 ft | 450 kts | 238° |
| 2026-04-30 12:44 | -36.05249 | 148.22608 | 32384 ft | 449 kts | 238° |
| 2026-04-30 12:44 | -36.07017 | 148.19449 | 32462 ft | 442 kts | 238° |
| 2026-04-30 12:45 | -36.10452 | 148.13311 | 32459 ft | 430 kts | 238° |
| 2026-04-30 12:45 | -36.13841 | 148.07239 | 32458 ft | 429 kts | 238° |
| 2026-04-30 12:46 | -36.17238 | 148.01176 | 32456 ft | 428 kts | 238° |
| 2026-04-30 12:46 | -36.20608 | 147.95149 | 32459 ft | 428 kts | 238° |
| 2026-04-30 12:47 | -36.23986 | 147.89078 | 32455 ft | 428 kts | 238° |
| 2026-04-30 12:47 | -36.27360 | 147.82996 | 32461 ft | 428 kts | 239° |
| 2026-04-30 12:48 | -36.30731 | 147.76911 | 32461 ft | 428 kts | 239° |
| 2026-04-30 12:48 | -36.34099 | 147.70832 | 32460 ft | 428 kts | 239° |
| 2026-04-30 12:49 | -36.37465 | 147.64741 | 32464 ft | 428 kts | 239° |
| 2026-04-30 12:49 | -36.40819 | 147.58644 | 32465 ft | 428 kts | 239° |
| 2026-04-30 12:50 | -36.44176 | 147.52542 | 32471 ft | 428 kts | 239° |
| 2026-04-30 12:50 | -36.47512 | 147.46477 | 32457 ft | 428 kts | 239° |
| 2026-04-30 12:51 | -36.50856 | 147.40367 | 32462 ft | 428 kts | 239° |
| 2026-04-30 12:51 | -36.54202 | 147.34240 | 32464 ft | 428 kts | 239° |
| 2026-04-30 12:52 | -36.57543 | 147.28114 | 32461 ft | 428 kts | 239° |
| 2026-04-30 12:52 | -36.60890 | 147.21967 | 32457 ft | 429 kts | 239° |
| 2026-04-30 12:53 | -36.64238 | 147.15823 | 32452 ft | 429 kts | 239° |
| 2026-04-30 12:53 | -36.67559 | 147.09709 | 32470 ft | 429 kts | 239° |
| 2026-04-30 12:54 | -36.70894 | 147.03547 | 32461 ft | 429 kts | 239° |
| 2026-04-30 12:54 | -36.74228 | 146.97385 | 32461 ft | 429 kts | 239° |
| 2026-04-30 12:55 | -36.77558 | 146.91220 | 32457 ft | 428 kts | 239° |
| 2026-04-30 12:55 | -36.80885 | 146.85051 | 32470 ft | 428 kts | 240° |
| 2026-04-30 12:56 | -36.84202 | 146.78886 | 32470 ft | 428 kts | 240° |
| 2026-04-30 12:56 | -36.87516 | 146.72721 | 32460 ft | 427 kts | 240° |
| 2026-04-30 12:57 | -36.90796 | 146.66597 | 32459 ft | 427 kts | 240° |
| 2026-04-30 12:57 | -36.94095 | 146.60409 | 32429 ft | 435 kts | 240° |
| 2026-04-30 12:58 | -36.97499 | 146.54030 | 32433 ft | 443 kts | 240° |
| 2026-04-30 12:58 | -37.00932 | 146.47605 | 32425 ft | 444 kts | 240° |
| 2026-04-30 12:59 | -37.04337 | 146.41209 | 31988 ft | 432 kts | 240° |
| 2026-04-30 12:59 | -37.05990 | 146.38101 | 31132 ft | 426 kts | 240° |
| 2026-04-30 12:59 | -37.07605 | 146.35060 | 30297 ft | 420 kts | 240° |
| 2026-04-30 13:00 | -37.09211 | 146.32035 | 29346 ft | 414 kts | 240° |
| 2026-04-30 13:00 | -37.10792 | 146.29051 | 28437 ft | 407 kts | 240° |
| 2026-04-30 13:00 | -37.12345 | 146.26119 | 27574 ft | 402 kts | 240° |
| 2026-04-30 13:00 | -37.13882 | 146.23213 | 26742 ft | 397 kts | 240° |
| 2026-04-30 13:01 | -37.15388 | 146.20360 | 26155 ft | 388 kts | 240° |
| 2026-04-30 13:01 | -37.16855 | 146.17586 | 25730 ft | 375 kts | 240° |
| 2026-04-30 13:01 | -37.18273 | 146.14913 | 25321 ft | 363 kts | 240° |
| 2026-04-30 13:01 | -37.19648 | 146.12318 | 24901 ft | 351 kts | 240° |
| 2026-04-30 13:02 | -37.20987 | 146.09779 | 24488 ft | 348 kts | 241° |
| 2026-04-30 13:02 | -37.22316 | 146.07240 | 24078 ft | 348 kts | 241° |
| 2026-04-30 13:02 | -37.23646 | 146.04696 | 23623 ft | 349 kts | 241° |
| 2026-04-30 13:02 | -37.24976 | 146.02155 | 23194 ft | 348 kts | 241° |
| 2026-04-30 13:03 | -37.26303 | 145.99628 | 22777 ft | 346 kts | 241° |
| 2026-04-30 13:03 | -37.27623 | 145.97112 | 22357 ft | 344 kts | 241° |
| 2026-04-30 13:03 | -37.28933 | 145.94605 | 21942 ft | 343 kts | 241° |
| 2026-04-30 13:03 | -37.30237 | 145.92108 | 21537 ft | 341 kts | 241° |
| 2026-04-30 13:04 | -37.31523 | 145.89654 | 21132 ft | 340 kts | 241° |
| 2026-04-30 13:04 | -37.32827 | 145.87174 | 20708 ft | 339 kts | 241° |
| 2026-04-30 13:04 | -37.34129 | 145.84704 | 20298 ft | 339 kts | 241° |
| 2026-04-30 13:04 | -37.35430 | 145.82236 | 19883 ft | 338 kts | 241° |
| 2026-04-30 13:05 | -37.36724 | 145.79771 | 19474 ft | 338 kts | 241° |
| 2026-04-30 13:05 | -37.38018 | 145.77299 | 19055 ft | 338 kts | 241° |
| 2026-04-30 13:05 | -37.39306 | 145.74833 | 18635 ft | 337 kts | 241° |
| 2026-04-30 13:06 | -37.41871 | 145.69914 | 17777 ft | 334 kts | 241° |
| 2026-04-30 13:06 | -37.43142 | 145.67481 | 17356 ft | 331 kts | 241° |
| 2026-04-30 13:06 | -37.44402 | 145.65067 | 16959 ft | 329 kts | 241° |
| 2026-04-30 13:06 | -37.45663 | 145.62681 | 16558 ft | 327 kts | 239° |
| 2026-04-30 13:07 | -37.46978 | 145.60347 | 16165 ft | 326 kts | 238° |
| 2026-04-30 13:07 | -37.48325 | 145.58052 | 15762 ft | 325 kts | 237° |
| 2026-04-30 13:07 | -37.49677 | 145.55779 | 15375 ft | 324 kts | 237° |
| 2026-04-30 13:07 | -37.51005 | 145.53542 | 14987 ft | 322 kts | 237° |
| 2026-04-30 13:08 | -37.52337 | 145.51284 | 14600 ft | 321 kts | 237° |
| 2026-04-30 13:08 | -37.53663 | 145.49015 | 14209 ft | 320 kts | 237° |
| 2026-04-30 13:08 | -37.54979 | 145.46753 | 13783 ft | 320 kts | 237° |
| 2026-04-30 13:08 | -37.56288 | 145.44497 | 13384 ft | 318 kts | 237° |
| 2026-04-30 13:09 | -37.57591 | 145.42248 | 12987 ft | 316 kts | 237° |
| 2026-04-30 13:09 | -37.58884 | 145.40014 | 12611 ft | 315 kts | 237° |
| 2026-04-30 13:09 | -37.60171 | 145.37786 | 12227 ft | 313 kts | 237° |
| 2026-04-30 13:09 | -37.61450 | 145.35572 | 11836 ft | 311 kts | 237° |
| 2026-04-30 13:10 | -37.62722 | 145.33364 | 11454 ft | 310 kts | 237° |
| 2026-04-30 13:10 | -37.63986 | 145.31167 | 11076 ft | 309 kts | 237° |
| 2026-04-30 13:10 | -37.65246 | 145.28979 | 10698 ft | 308 kts | 237° |
| 2026-04-30 13:10 | -37.66501 | 145.26804 | 10451 ft | 302 kts | 237° |
| 2026-04-30 13:11 | -37.67722 | 145.24693 | 10260 ft | 295 kts | 237° |
| 2026-04-30 13:11 | -37.68925 | 145.22608 | 9936 ft | 293 kts | 237° |
| 2026-04-30 13:11 | -37.70120 | 145.20532 | 9583 ft | 291 kts | 237° |
| 2026-04-30 13:11 | -37.71307 | 145.18470 | 9228 ft | 290 kts | 237° |
| 2026-04-30 13:12 | -37.72490 | 145.16416 | 8872 ft | 289 kts | 237° |
| 2026-04-30 13:12 | -37.73652 | 145.14392 | 8551 ft | 286 kts | 238° |
| 2026-04-30 13:12 | -37.74800 | 145.12392 | 8425 ft | 276 kts | 238° |
| 2026-04-30 13:13 | -37.76977 | 145.08595 | 7617 ft | 262 kts | 239° |
| 2026-04-30 13:13 | -37.78042 | 145.06732 | 7095 ft | 260 kts | 239° |
| 2026-04-30 13:13 | -37.80217 | 145.02899 | 4836 ft | 289 kts | 240° |
| 2026-04-30 13:14 | -37.81255 | 145.00821 | 4051 ft | 282 kts | 252° |
| 2026-04-30 13:14 | -37.81793 | 144.98436 | 3270 ft | 280 kts | 264° |
| 2026-04-30 13:14 | -37.82587 | 144.93875 | 2705 ft | 249 kts | 265° |
| 2026-04-30 13:15 | -37.82891 | 144.91791 | 2590 ft | 227 kts | 267° |
| 2026-04-30 13:15 | -37.83026 | 144.88116 | 2495 ft | 191 kts | 301° |
| 2026-04-30 13:15 | -37.82230 | 144.86894 | 2504 ft | 176 kts | 333° |
| 2026-04-30 13:16 | -37.81091 | 144.86435 | 2514 ft | 172 kts | 353° |
| 2026-04-30 13:16 | -37.79946 | 144.86226 | 2522 ft | 157 kts | 354° |
| 2026-04-30 13:16 | -37.78906 | 144.86030 | 2393 ft | 148 kts | 354° |
| 2026-04-30 13:17 | -37.76962 | 144.85666 | 2001 ft | 136 kts | 354° |
| 2026-04-30 13:17 | -37.76025 | 144.85492 | 1817 ft | 135 kts | 354° |
| 2026-04-30 13:17 | -37.74480 | 144.85205 | 1522 ft | 134 kts | 353° |
| 2026-04-30 13:18 | -37.73545 | 144.85032 | 1333 ft | 138 kts | 354° |
| 2026-04-30 13:18 | -37.71385 | 144.84629 | 920 ft | 135 kts | 352° |
| 2026-04-30 13:18 | -37.70458 | 144.84458 | 734 ft | 135 kts | 353° |
| 2026-04-30 13:19 | -37.69537 | 144.84276 | 566 ft | 134 kts | 353° |
| 2026-04-30 13:19 | -37.68623 | 144.84099 | 407 ft | 128 kts | 353° |
| 2026-04-30 13:19 | -37.67831 | 144.83956 | 362 ft | 96 kts | 352° |
| 2026-04-30 13:19 | -37.67338 | 144.83868 | 373 ft | 47 kts | 351° |
| 2026-04-30 13:20 | -37.67194 | 144.83841 | 380 ft | 23 kts | 351° |
| 2026-04-30 13:20 | -37.67041 | 144.83835 | 385 ft | 22 kts | 7° |
| 2026-04-30 13:20 | -37.66917 | 144.83874 | 389 ft | 16 kts | 21° |
| 2026-04-30 13:20 | -37.66844 | 144.83911 | 391 ft | 11 kts | 22° |
| 2026-04-30 13:21 | -37.66769 | 144.83952 | 393 ft | 12 kts | 31° |
| 2026-04-30 13:21 | -37.66720 | 144.84042 | 395 ft | 14 kts | 77° |
| 2026-04-30 13:21 | -37.66704 | 144.84173 | 392 ft | 16 kts | 82° |
| 2026-04-30 13:22 | -37.66671 | 144.84462 | 398 ft | 17 kts | 81° |
| 2026-04-30 13:22 | -37.66653 | 144.84613 | 400 ft | 18 kts | 81° |
| 2026-04-30 13:22 | -37.66646 | 144.84786 | 402 ft | 6 kts | 120° |
| 2026-04-30 13:23 | -37.66697 | 144.84813 | 401 ft | 6 kts | 170° |
| 2026-04-30 13:23 | -37.66722 | 144.84879 | 400 ft | 1 kts | 80° |
| 2026-04-30 13:24 | -37.66718 | 144.84910 | 398 ft | 2 kts | 82° |